createdAt,value
2023-04-25T00:00:35.597Z,12.07
2023-04-25T00:03:03.246Z,9.67
2023-04-25T00:05:31.412Z,11.73
2023-04-25T00:07:59.166Z,10.80
2023-04-25T00:10:26.534Z,12.60
2023-04-25T00:12:54.349Z,12.77
2023-04-25T00:15:21.818Z,13.60
2023-04-25T00:17:49.284Z,13.67
2023-04-25T00:20:17.182Z,12.77
2023-04-25T00:22:44.604Z,12.03
2023-04-25T00:25:12.009Z,12.67
2023-04-25T00:27:39.889Z,11.60
2023-04-25T00:30:09.684Z,11.33
2023-04-25T00:32:37.175Z,12.20
2023-04-25T00:35:09.212Z,10.90
2023-04-25T00:37:36.674Z,12.03
2023-04-25T00:40:06.896Z,10.20
2023-04-25T00:42:34.337Z,11.53
2023-04-25T00:45:02.257Z,12.33
2023-04-25T00:47:30.350Z,11.60
2023-04-25T00:49:57.738Z,10.57
2023-04-25T00:52:25.327Z,11.37
2023-04-25T00:54:52.711Z,11.00
2023-04-25T00:57:20.121Z,8.93
2023-04-25T00:59:47.588Z,8.67
2023-04-25T01:02:15.184Z,10.80
2023-04-25T01:04:42.689Z,10.10
2023-04-25T01:07:11.131Z,11.30
2023-04-25T01:09:38.551Z,12.30
2023-04-25T01:12:06.030Z,12.03
2023-04-25T01:14:33.404Z,13.20
2023-04-25T01:17:01.113Z,11.77
2023-04-25T01:19:28.588Z,12.30
2023-04-25T01:21:56.099Z,13.83
2023-04-25T01:24:23.850Z,14.60
2023-04-25T01:26:51.559Z,14.23
2023-04-25T01:29:19.098Z,13.73
2023-04-25T01:31:46.792Z,14.33
2023-04-25T01:34:14.440Z,13.97
2023-04-25T01:36:41.825Z,14.97
2023-04-25T01:39:09.218Z,14.20
2023-04-25T01:41:36.624Z,14.43
2023-04-25T01:44:10.689Z,14.00
2023-04-25T01:46:38.128Z,13.27
2023-04-25T01:49:05.576Z,15.23
2023-04-25T01:51:33.045Z,14.83
2023-04-25T01:54:01.142Z,15.70
2023-04-25T01:56:30.147Z,15.40
2023-04-25T01:58:57.542Z,15.03
2023-04-25T02:01:24.982Z,13.50
2023-04-25T02:03:52.748Z,15.93
2023-04-25T02:06:20.539Z,15.30
2023-04-25T02:08:48.004Z,14.07
2023-04-25T02:11:15.390Z,13.77
2023-04-25T02:13:42.831Z,14.30
2023-04-25T02:16:10.343Z,13.30
2023-04-25T02:18:38.314Z,12.73
2023-04-25T02:21:05.710Z,12.47
2023-04-25T02:23:33.845Z,11.90
2023-04-25T02:26:01.327Z,12.00
2023-04-25T02:28:28.777Z,11.30
2023-04-25T02:30:56.255Z,12.20
2023-04-25T02:33:23.628Z,11.80
2023-04-25T02:35:51.019Z,10.70
2023-04-25T02:38:18.422Z,10.97
2023-04-25T02:40:45.971Z,11.67
2023-04-25T02:43:13.362Z,11.70
2023-04-25T02:45:40.754Z,12.47
2023-04-25T02:48:08.204Z,12.83
2023-04-25T02:50:35.520Z,11.50
2023-04-25T02:53:02.942Z,10.73
2023-04-25T02:55:30.476Z,13.20
2023-04-25T02:57:57.876Z,11.90
2023-04-25T03:00:25.324Z,10.97
2023-04-25T03:02:52.811Z,11.20
2023-04-25T03:05:20.186Z,11.17
2023-04-25T03:07:47.599Z,10.40
2023-04-25T03:10:15.005Z,9.93
2023-04-25T03:12:42.578Z,10.40
2023-04-25T03:15:10.176Z,9.60
2023-04-25T03:17:37.649Z,10.40
2023-04-25T03:20:05.995Z,9.90
2023-04-25T03:22:33.409Z,10.53
2023-04-25T03:25:00.777Z,10.77
2023-04-25T03:27:28.371Z,10.30
2023-04-25T03:29:55.755Z,10.17
2023-04-25T03:32:23.294Z,10.97
2023-04-25T03:34:50.887Z,10.30
2023-04-25T03:37:18.293Z,10.70
2023-04-25T03:39:45.687Z,10.30
2023-04-25T03:42:13.065Z,10.43
2023-04-25T03:44:40.827Z,10.33
2023-04-25T03:47:08.223Z,10.10
2023-04-25T03:49:36.363Z,10.57
2023-04-25T03:52:04.626Z,10.27
2023-04-25T03:54:32.005Z,9.00
2023-04-25T03:56:59.383Z,9.60
2023-04-25T03:59:26.940Z,8.00
2023-04-25T04:01:54.325Z,8.70
2023-04-25T04:04:21.874Z,8.80
2023-04-25T04:06:49.597Z,7.60
2023-04-25T04:09:17.059Z,10.03
2023-04-25T04:11:44.451Z,7.90
2023-04-25T04:14:11.843Z,8.70
2023-04-25T04:16:39.313Z,8.77
2023-04-25T04:19:06.795Z,9.33
2023-04-25T04:21:34.262Z,8.73
2023-04-25T04:24:01.641Z,8.43
2023-04-25T04:26:29.238Z,8.50
2023-04-25T04:28:56.610Z,8.97
2023-04-25T04:31:24.839Z,8.20
2023-04-25T04:33:52.832Z,8.40
2023-04-25T04:36:23.938Z,9.37
2023-04-25T04:38:51.329Z,9.33
2023-04-25T04:41:20.291Z,7.70
2023-04-25T04:43:48.765Z,9.50
2023-04-25T04:46:17.245Z,8.77
2023-04-25T04:48:45.291Z,9.77
2023-04-25T04:51:12.696Z,9.00
2023-04-25T04:53:40.089Z,7.47
2023-04-25T04:56:07.826Z,8.83
2023-04-25T04:58:36.393Z,10.07
2023-04-25T05:01:04.040Z,8.70
2023-04-25T05:03:31.541Z,8.97
2023-04-25T05:05:59.139Z,8.17
2023-04-25T05:08:26.556Z,8.57
2023-04-25T05:10:54.217Z,10.17
2023-04-25T05:13:21.600Z,9.40
2023-04-25T05:15:48.988Z,9.03
2023-04-25T05:18:16.383Z,9.90
2023-04-25T05:20:43.791Z,10.20
2023-04-25T05:23:11.212Z,9.93
2023-04-25T05:25:38.593Z,8.97
2023-04-25T05:28:06.662Z,9.57
2023-04-25T05:30:34.043Z,8.90
2023-04-25T05:33:02.495Z,10.03
2023-04-25T05:35:30.008Z,10.30
2023-04-25T05:37:57.460Z,9.23
2023-04-25T05:40:24.845Z,8.70
2023-04-25T05:42:52.269Z,8.80
2023-04-25T05:45:19.678Z,8.30
2023-04-25T05:47:47.163Z,8.93
2023-04-25T05:50:14.565Z,9.57
2023-04-25T05:52:41.964Z,9.03
2023-04-25T05:55:09.523Z,8.73
2023-04-25T05:57:36.900Z,8.07
2023-04-25T06:00:06.019Z,8.80
2023-04-25T06:02:33.616Z,9.47
2023-04-25T06:05:02.940Z,8.70
2023-04-25T06:07:31.311Z,7.23
2023-04-25T06:09:58.717Z,7.87
2023-04-25T06:12:26.178Z,8.73
2023-04-25T06:14:53.515Z,7.50
2023-04-25T06:17:20.955Z,7.40
2023-04-25T06:19:48.291Z,6.60
2023-04-25T06:22:15.749Z,7.53
2023-04-25T06:24:43.158Z,7.03
2023-04-25T06:27:10.553Z,6.30
2023-04-25T06:29:37.936Z,6.80
2023-04-25T06:32:05.592Z,6.10
2023-04-25T06:34:32.978Z,5.80
2023-04-25T06:37:00.369Z,6.50
2023-04-25T06:39:27.764Z,5.40
2023-04-25T06:41:55.403Z,6.30
2023-04-25T06:44:24.472Z,6.00
2023-04-25T06:46:51.961Z,5.60
2023-04-25T06:49:19.403Z,5.37
2023-04-25T06:51:46.780Z,6.03
2023-04-25T06:54:14.180Z,6.40
2023-04-25T06:56:42.050Z,6.10
2023-04-25T06:59:10.027Z,5.73
2023-04-25T07:01:37.426Z,5.97
2023-04-25T07:04:05.071Z,6.10
2023-04-25T07:06:32.956Z,5.10
2023-04-25T07:09:00.363Z,5.40
2023-04-25T07:11:27.765Z,6.00
2023-04-25T07:13:55.162Z,5.07
2023-04-25T07:16:22.595Z,5.50
2023-04-25T07:18:50.156Z,4.70
2023-04-25T07:21:17.771Z,4.97
2023-04-25T07:23:45.302Z,4.63
2023-04-25T07:26:12.696Z,5.60
2023-04-25T07:28:40.274Z,4.90
2023-04-25T07:31:07.693Z,4.80
2023-04-25T07:33:35.543Z,4.00
2023-04-25T07:36:03.109Z,4.00
2023-04-25T07:38:30.505Z,3.47
2023-04-25T07:40:57.888Z,3.30
2023-04-25T07:43:25.294Z,4.00
2023-04-25T07:45:52.782Z,4.10
2023-04-25T07:48:20.658Z,3.57
2023-04-25T07:50:48.053Z,4.20
2023-04-25T07:53:15.504Z,4.00
2023-04-25T07:55:42.886Z,4.53
2023-04-25T07:58:10.862Z,3.63
2023-04-25T08:00:38.831Z,4.30
2023-04-25T08:03:07.617Z,4.53
2023-04-25T08:05:35.654Z,4.10
2023-04-25T08:08:03.163Z,4.60
2023-04-25T08:10:30.539Z,4.57
2023-04-25T08:12:57.914Z,5.20
2023-04-25T08:15:26.205Z,5.60
2023-04-25T08:17:53.730Z,5.67
2023-04-25T08:20:21.054Z,6.43
2023-04-25T08:22:49.636Z,5.67
2023-04-25T08:25:17.013Z,6.50
2023-04-25T08:27:44.695Z,6.47
2023-04-25T08:30:12.340Z,6.50
2023-04-25T08:32:39.883Z,5.90
2023-04-25T08:35:07.760Z,6.60
2023-04-25T08:37:35.119Z,6.40
2023-04-25T08:40:03.703Z,6.67
2023-04-25T08:42:32.869Z,7.30
2023-04-25T08:45:00.647Z,7.37
2023-04-25T08:47:29.323Z,6.90
2023-04-25T08:49:57.540Z,7.27
2023-04-25T08:52:25.536Z,6.90
2023-04-25T08:54:52.910Z,7.60
2023-04-25T08:57:21.163Z,6.57
2023-04-25T08:59:49.317Z,7.20
2023-04-25T09:02:18.674Z,6.90
2023-04-25T09:04:46.254Z,6.53
2023-04-25T09:07:15.361Z,5.93
2023-04-25T09:09:43.066Z,6.20
2023-04-25T09:12:10.498Z,6.50
2023-04-25T09:14:37.936Z,5.80
2023-04-25T09:17:07.707Z,6.13
2023-04-25T09:19:40.417Z,6.00
2023-04-25T09:22:06.025Z,5.73
2023-04-25T09:24:41.504Z,5.93
2023-04-25T09:27:09.528Z,6.97
2023-04-25T09:29:38.489Z,6.37
2023-04-25T09:32:22.509Z,6.43
2023-04-25T09:34:51.417Z,6.83
2023-04-25T09:37:20.120Z,7.10
2023-04-25T09:39:48.767Z,6.97
2023-04-25T09:42:17.543Z,6.70
2023-04-25T09:44:45.716Z,6.50
2023-04-25T09:47:14.661Z,6.57
2023-04-25T09:49:43.124Z,6.77
2023-04-25T09:52:10.983Z,5.80
2023-04-25T09:54:38.385Z,5.60
2023-04-25T09:57:08.271Z,5.47
2023-04-25T09:59:36.701Z,4.77
2023-04-25T10:02:04.275Z,4.57
2023-04-25T10:04:34.032Z,4.60
2023-04-25T10:07:01.925Z,5.87
2023-04-25T10:09:34.798Z,4.70
2023-04-25T10:12:02.587Z,4.70
2023-04-25T10:14:31.118Z,5.37
2023-04-25T10:17:00.130Z,5.73
2023-04-25T10:19:28.077Z,5.40
2023-04-25T10:22:00.132Z,5.30
2023-04-25T10:24:28.418Z,4.60
2023-04-25T10:26:56.185Z,5.37
2023-04-25T10:29:26.898Z,4.83
2023-04-25T10:31:54.751Z,5.10
2023-04-25T10:34:23.712Z,4.33
2023-04-25T10:36:55.054Z,4.90
2023-04-25T10:39:26.360Z,4.60
2023-04-25T10:41:55.913Z,4.80
2023-04-25T10:44:23.392Z,4.67
2023-04-25T10:46:50.854Z,4.10
2023-04-25T10:49:32.242Z,4.17
2023-04-25T10:52:15.896Z,3.83
2023-04-25T10:54:44.049Z,3.93
2023-04-25T10:57:12.958Z,3.63
2023-04-25T10:59:41.269Z,4.13
2023-04-25T11:02:10.393Z,4.33
2023-04-25T11:04:39.576Z,3.33
2023-04-25T11:07:27.063Z,4.27
2023-04-25T11:09:54.933Z,4.47
2023-04-25T11:12:22.358Z,4.23
2023-04-25T11:14:49.756Z,4.77
2023-04-25T11:17:17.252Z,3.80
2023-04-25T11:19:44.995Z,3.93
2023-04-25T11:22:13.476Z,3.83
2023-04-25T11:24:40.890Z,4.20
2023-04-25T11:27:08.252Z,4.13
2023-04-25T11:29:36.455Z,3.70
2023-04-25T11:32:03.893Z,4.90
2023-04-25T11:34:33.470Z,4.13
2023-04-25T11:37:01.419Z,4.13
2023-04-25T11:39:29.103Z,5.07
2023-04-25T11:41:56.742Z,4.03
2023-04-25T11:44:24.160Z,3.40
2023-04-25T11:46:51.591Z,3.80
2023-04-25T11:49:19.066Z,3.40
2023-04-25T11:51:47.512Z,3.00
2023-04-25T11:54:15.188Z,3.80
2023-04-25T11:56:43.159Z,4.03
2023-04-25T11:59:11.141Z,3.80
2023-04-25T12:01:39.915Z,3.43
2023-04-25T12:04:14.830Z,3.53
2023-04-25T12:06:43.183Z,3.70
2023-04-25T12:09:11.697Z,4.03
2023-04-25T12:11:43.498Z,3.73
2023-04-25T12:14:11.880Z,4.13
2023-04-25T12:16:46.449Z,3.77
2023-04-25T12:19:20.913Z,3.87
2023-04-25T12:24:20.202Z,4.10
2023-04-25T12:26:48.349Z,4.47
2023-04-25T12:29:19.280Z,4.00
2023-04-25T12:31:46.752Z,3.90
2023-04-25T12:34:14.268Z,3.70
2023-04-25T12:36:41.833Z,3.30
2023-04-25T12:39:09.278Z,3.50
2023-04-25T12:41:36.697Z,4.03
2023-04-25T12:44:04.065Z,3.73
2023-04-25T12:46:31.513Z,4.40
2023-04-25T12:51:25.621Z,4.40
2023-04-25T12:53:52.995Z,4.67
2023-04-25T12:56:22.450Z,4.27
2023-04-25T12:58:49.873Z,4.27
2023-04-25T13:01:17.447Z,3.50
2023-04-25T13:03:45.383Z,3.80
2023-04-25T13:06:13.745Z,3.90
2023-04-25T13:08:42.094Z,4.30
2023-04-25T13:11:09.945Z,3.90
2023-04-25T13:13:37.414Z,4.33
2023-04-25T13:16:06.632Z,3.70
2023-04-25T13:18:34.047Z,3.87
2023-04-25T13:21:01.612Z,3.87
2023-04-25T13:23:30.098Z,4.70
2023-04-25T13:25:59.485Z,3.40
2023-04-25T13:28:26.871Z,4.47
2023-04-25T13:30:54.741Z,3.63
2023-04-25T13:33:22.370Z,4.23
2023-04-25T13:35:52.368Z,4.07
2023-04-25T13:38:19.762Z,4.13
2023-04-25T13:40:47.279Z,3.60
2023-04-25T13:43:14.644Z,3.73
2023-04-25T13:45:42.449Z,3.30
2023-04-25T13:48:09.838Z,3.17
2023-04-25T13:50:37.194Z,3.20
2023-04-25T13:53:04.573Z,3.07
2023-04-25T13:55:31.961Z,2.73
2023-04-25T13:57:59.324Z,3.00
2023-04-25T14:00:26.793Z,3.30
2023-04-25T14:02:54.444Z,2.80
2023-04-25T14:05:21.924Z,2.90
2023-04-25T14:07:49.309Z,2.87
2023-04-25T14:10:16.742Z,2.70
2023-04-25T14:12:44.179Z,3.30
2023-04-25T14:15:11.695Z,3.30
2023-04-25T14:17:39.659Z,2.40
2023-04-25T14:20:08.557Z,2.70
2023-04-25T14:22:35.944Z,2.57
2023-04-25T14:25:04.102Z,3.20
2023-04-25T14:27:31.497Z,2.63
2023-04-25T14:29:58.926Z,3.57
2023-04-25T14:32:26.736Z,3.20
2023-04-25T14:34:54.113Z,2.83
2023-04-25T14:37:21.500Z,3.03
2023-04-25T14:39:48.895Z,2.90
2023-04-25T14:42:16.240Z,3.93
2023-04-25T14:44:43.631Z,3.43
2023-04-25T14:47:11.026Z,3.77
2023-04-25T14:49:38.429Z,3.33
2023-04-25T14:52:05.813Z,3.00
2023-04-25T14:54:33.230Z,2.90
2023-04-25T14:57:01.468Z,3.50
2023-04-25T14:59:28.927Z,3.10
2023-04-25T15:01:59.097Z,3.17
2023-04-25T15:04:25.707Z,3.30
2023-04-25T15:06:53.192Z,3.07
2023-04-25T15:09:20.632Z,2.60
2023-04-25T15:11:48.011Z,3.00
2023-04-25T15:14:15.405Z,2.60
2023-04-25T15:16:42.940Z,2.47
2023-04-25T15:19:11.246Z,2.27
2023-04-25T15:21:38.688Z,2.60
2023-04-25T15:24:06.216Z,3.00
2023-04-25T15:26:33.599Z,2.73
2023-04-25T15:29:01.034Z,2.67
2023-04-25T15:31:28.429Z,2.23
2023-04-25T15:33:55.982Z,2.80
2023-04-25T15:36:23.358Z,2.50
2023-04-25T15:38:50.740Z,2.67
2023-04-25T15:41:18.717Z,2.53
2023-04-25T15:43:47.897Z,2.67
2023-04-25T15:46:15.369Z,2.50
2023-04-25T15:48:42.782Z,2.40
2023-04-25T15:51:10.574Z,2.80
2023-04-25T15:53:37.937Z,2.70
2023-04-25T15:56:05.456Z,2.80
2023-04-25T15:58:32.889Z,2.63
2023-04-25T16:01:00.336Z,3.30
2023-04-25T16:03:28.115Z,2.37
2023-04-25T16:05:55.612Z,2.63
2023-04-25T16:08:23.008Z,2.50
2023-04-25T16:10:50.519Z,2.87
2023-04-25T16:13:17.909Z,2.50
2023-04-25T16:15:45.325Z,2.30
2023-04-25T16:18:12.723Z,2.57
2023-04-25T16:20:40.272Z,2.77
2023-04-25T16:23:07.733Z,2.37
2023-04-25T16:25:35.132Z,2.50
2023-04-25T16:28:02.521Z,2.63
2023-04-25T16:30:29.924Z,2.50
2023-04-25T16:32:58.122Z,2.03
2023-04-25T16:35:26.031Z,2.50
2023-04-25T16:37:53.417Z,3.00
2023-04-25T16:40:20.846Z,2.70
2023-04-25T16:42:48.220Z,2.90
2023-04-25T16:45:17.834Z,2.63
2023-04-25T16:47:46.007Z,2.20
2023-04-25T16:50:16.310Z,2.60
2023-04-25T16:52:44.555Z,2.30
2023-04-25T16:55:12.091Z,2.10
2023-04-25T16:57:39.479Z,2.10
2023-04-25T17:00:08.380Z,2.30
2023-04-25T17:02:35.910Z,2.17
2023-04-25T17:05:03.428Z,2.83
2023-04-25T17:07:30.960Z,2.30
2023-04-25T17:10:01.342Z,2.30
2023-04-25T17:12:28.739Z,2.30
2023-04-25T17:14:56.136Z,2.53
2023-04-25T17:17:23.601Z,2.40
2023-04-25T17:19:51.108Z,2.13
2023-04-25T17:22:18.499Z,2.27
2023-04-25T17:24:46.256Z,2.60
2023-04-25T17:27:13.602Z,2.23
2023-04-25T17:29:41.259Z,1.97
2023-04-25T17:32:08.669Z,1.83
2023-04-25T17:34:37.428Z,2.20
2023-04-25T17:37:04.830Z,2.07
2023-04-25T17:39:32.229Z,2.60
2023-04-25T17:42:00.964Z,1.90
2023-04-25T17:44:28.597Z,2.40
2023-04-25T17:46:55.986Z,2.17
2023-04-25T17:49:23.383Z,2.13
2023-04-25T17:51:50.796Z,2.40
2023-04-25T17:54:18.396Z,2.07
2023-04-25T17:56:45.808Z,2.20
2023-04-25T17:59:13.289Z,2.17
2023-04-25T18:01:43.709Z,1.80
2023-04-25T18:04:09.856Z,2.10
2023-04-25T18:06:37.252Z,2.10
2023-04-25T18:09:06.374Z,2.60
2023-04-25T18:11:34.176Z,2.10
2023-04-25T18:14:01.598Z,2.10
2023-04-25T18:16:29.374Z,2.03
2023-04-25T18:18:58.537Z,2.30
2023-04-25T18:21:25.963Z,2.17
2023-04-25T18:23:53.380Z,2.53
2023-04-25T18:26:21.076Z,1.90
2023-04-25T18:28:48.616Z,2.20
2023-04-25T18:31:17.212Z,2.23
2023-04-25T18:33:44.845Z,2.10
2023-04-25T18:36:12.236Z,1.83
2023-04-25T18:38:39.621Z,1.90
2023-04-25T18:41:27.396Z,1.80
2023-04-25T18:43:36.016Z,2.00
2023-04-25T18:46:03.450Z,1.60
2023-04-25T18:48:30.844Z,2.00
2023-04-25T18:50:58.223Z,2.00
2023-04-25T18:53:25.643Z,2.33
2023-04-25T18:55:53.017Z,2.40
2023-04-25T18:58:20.427Z,2.77
2023-04-25T19:00:48.820Z,2.10
2023-04-25T19:03:16.526Z,2.50
2023-04-25T19:05:44.031Z,2.30
2023-04-25T19:08:11.412Z,2.13
2023-04-25T19:10:38.840Z,2.23
2023-04-25T19:13:07.329Z,2.27
2023-04-25T19:15:34.704Z,2.40
2023-04-25T19:18:02.616Z,3.67
2023-04-25T19:20:30.210Z,2.70
2023-04-25T19:22:57.910Z,2.60
2023-04-25T19:25:26.160Z,2.60
2023-04-25T19:27:54.031Z,3.00
2023-04-25T19:30:21.466Z,2.60
2023-04-25T19:32:49.154Z,2.70
2023-04-25T19:35:16.546Z,2.60
2023-04-25T19:37:45.667Z,3.10
2023-04-25T19:40:16.344Z,2.90
2023-04-25T19:42:44.339Z,2.90
2023-04-25T19:45:12.209Z,3.00
2023-04-25T19:47:39.682Z,2.97
2023-04-25T19:50:08.442Z,2.73
2023-04-25T19:52:36.614Z,3.20
2023-04-25T19:55:04.769Z,2.77
2023-04-25T19:57:33.320Z,3.37
2023-04-25T20:00:02.959Z,3.60
2023-04-25T20:02:30.512Z,2.97
2023-04-25T20:04:58.024Z,2.90
2023-04-25T20:07:25.388Z,3.50
2023-04-25T20:09:52.785Z,3.83
2023-04-25T20:12:20.606Z,3.40
2023-04-25T20:14:48.016Z,3.10
2023-04-25T20:17:15.494Z,3.37
2023-04-25T20:19:42.889Z,3.23
2023-04-25T20:22:10.760Z,3.53
2023-04-25T20:24:38.572Z,3.30
2023-04-25T20:27:07.108Z,3.67
2023-04-25T20:29:34.517Z,3.30
2023-04-25T20:32:03.391Z,3.37
2023-04-25T20:34:31.615Z,3.00
2023-04-25T20:36:59.045Z,3.50
2023-04-25T20:39:26.749Z,3.57
2023-04-25T20:41:54.138Z,3.30
2023-04-25T20:44:23.231Z,3.80
2023-04-25T20:46:51.374Z,4.10
2023-04-25T20:49:18.856Z,3.60
2023-04-25T20:51:46.834Z,4.10
2023-04-25T20:54:14.257Z,3.80
2023-04-25T20:56:41.643Z,3.80
2023-04-25T20:59:09.080Z,3.40
2023-04-25T21:01:36.491Z,4.07
2023-04-25T21:04:05.962Z,3.30
2023-04-25T21:06:34.442Z,3.90
2023-04-25T21:09:02.194Z,3.50
2023-04-25T21:11:29.950Z,3.70
2023-04-25T21:13:57.365Z,3.73
2023-04-25T21:16:24.776Z,3.57
2023-04-25T21:18:52.326Z,3.77
2023-04-25T21:21:20.022Z,3.80
2023-04-25T21:23:47.425Z,4.33
2023-04-25T21:26:14.985Z,3.90
2023-04-25T21:28:42.389Z,3.23
2023-04-25T21:31:09.823Z,3.33
2023-04-25T21:33:37.374Z,3.20
2023-04-25T21:36:04.834Z,3.63
2023-04-25T21:38:32.305Z,4.10
2023-04-25T21:40:59.700Z,3.73
2023-04-25T21:43:27.077Z,3.70
2023-04-25T21:46:20.890Z,3.23
2023-04-25T21:48:23.497Z,3.33
2023-04-25T21:50:50.864Z,3.73
2023-04-25T21:53:18.269Z,3.73
2023-04-25T21:55:45.639Z,3.60
2023-04-25T21:58:13.035Z,3.50
2023-04-25T22:00:40.432Z,3.57
2023-04-25T22:03:08.039Z,3.30
2023-04-25T22:05:36.171Z,3.43
2023-04-25T22:08:06.374Z,3.40
2023-04-25T22:10:33.786Z,4.30
2023-04-25T22:13:01.202Z,4.13
2023-04-25T22:15:29.335Z,3.40
2023-04-25T22:17:57.559Z,3.60
2023-04-25T22:20:26.449Z,3.80
2023-04-25T22:22:55.277Z,3.70
2023-04-25T22:25:22.692Z,3.40
2023-04-25T22:27:51.126Z,4.27
2023-04-25T22:30:18.615Z,3.00
2023-04-25T22:32:46.285Z,3.50
2023-04-25T22:35:13.760Z,3.60
2023-04-25T22:37:41.517Z,3.27
2023-04-25T22:40:09.207Z,3.13
2023-04-25T22:42:40.449Z,3.03
2023-04-25T22:45:08.544Z,3.10
2023-04-25T22:47:36.881Z,3.80
2023-04-25T22:50:07.439Z,2.93
2023-04-25T22:52:34.913Z,3.30
2023-04-25T22:55:05.282Z,4.03
2023-04-25T22:57:32.998Z,3.17
2023-04-25T23:00:01.561Z,3.23
2023-04-25T23:02:29.088Z,3.30
2023-04-25T23:04:56.646Z,3.40
2023-04-25T23:07:24.062Z,3.00
2023-04-25T23:09:51.820Z,3.13
2023-04-25T23:12:19.327Z,3.30
2023-04-25T23:14:50.973Z,3.80
2023-04-25T23:17:18.359Z,3.47
2023-04-25T23:19:46.339Z,3.60
2023-04-25T23:22:14.190Z,3.90
2023-04-25T23:24:41.592Z,3.90
2023-04-25T23:27:08.972Z,3.93
2023-04-25T23:29:36.378Z,3.17
2023-04-25T23:32:04.224Z,4.30
2023-04-25T23:34:31.986Z,3.80
2023-04-25T23:37:01.378Z,3.90
2023-04-25T23:39:28.976Z,3.80
2023-04-25T23:41:57.547Z,4.37
2023-04-25T23:44:24.946Z,3.63
2023-04-25T23:46:52.365Z,4.50
2023-04-25T23:49:20.841Z,3.80
2023-04-25T23:51:48.228Z,4.27
2023-04-25T23:54:15.688Z,4.60
2023-04-25T23:56:43.081Z,4.00
2023-04-25T23:59:10.489Z,3.93
